• Join FlightAware (Why Join?)
  • Login
  • US Flag 
08:22AM EDT


 

Airport Tracker/Info


-or-


 

Live Flight TrackerFlight Track Log ✈ POE540 ✈ 06-Sep-2013 ✈ CYSB - CYTZ

Flight Track Log - Related Links

Times and Time Zones

All times are in EDT time to prevent confusion due to time zone crossing. See the POE540 flight status page for this flight to view local times or setup timezone preferences in your user account.

Time Position Orientation Groundspeed Altitude Reporting Facility
EDT Latitude Longitude Course Direction KTS MPH feet Rate Location/Type
06:17PM 46.5667 -80.8167 360° North 160 184 4,900  Level Toronto Center
06:17PM 46.5667 -80.8167 167° South 160 184 4,900 2,100 Level Toronto Center
06:18PM 46.5167 -80.8000 167° South 210 242 7,000 2,100 Climbing Toronto Center
06:18PM 46.5167 -80.8000 167° South 210 242 7,000 2,160 Level Toronto Center
06:19PM 46.4500 -80.7167 139° Southeast 270 311 9,200 2,160 Climbing Toronto Center
06:19PM 46.4500 -80.7167 139° Southeast 270 311 9,200 2,460 Level Toronto Center
06:20PM 46.3667 -80.6667 158° South 290 334 11,700 2,460 Climbing Toronto Center
06:20PM 46.3667 -80.6667 158° South 290 334 11,700 2,280 Level Toronto Center
06:21PM 46.3167 -80.6000 137° Southeast 290 334 14,000 2,280 Climbing Toronto Center
06:21PM 46.3167 -80.6000 137° Southeast 290 334 14,000 2,160 Level Toronto Center
06:22PM 46.2333 -80.5167 145° Southeast 290 334 16,200 2,160 Climbing Toronto Center
06:22PM 46.2333 -80.5167 145° Southeast 290 334 16,200 1,860 Level Toronto Center
06:23PM 46.1667 -80.4667 153° Southeast 290 334 18,100 1,860 Climbing Toronto Center
06:23PM 46.1667 -80.4667 153° Southeast 290 334 18,100 1,800 Level Toronto Center
06:24PM 46.1000 -80.4333 161° South 280 322 19,900 1,800 Climbing Toronto Center
06:24PM 46.1000 -80.4333 161° South 280 322 19,900 1,800 Level Toronto Center
06:25PM 46.0333 -80.3500 139° Southeast 280 322 21,700 1,800 Climbing Toronto Center
06:25PM 46.0333 -80.3500 139° Southeast 280 322 21,700 1,260 Level Toronto Center
06:26PM 45.9667 -80.3000 152° Southeast 280 322 23,000 1,260 Climbing Toronto Center
06:26PM 45.9667 -80.3000 152° Southeast 280 322 23,000  Level Toronto Center
06:27PM 45.9000 -80.2333 145° Southeast 310 357 23,000  Level Toronto Center
06:27PM 45.9000 -80.2333 145° Southeast 310 357 23,000  Level Toronto Center
06:28PM 45.8167 -80.1500 145° Southeast 340 391 23,000  Level Toronto Center
06:28PM 45.8167 -80.1500 145° Southeast 340 391 23,000  Level Toronto Center
06:29PM 45.7333 -80.0833 151° Southeast 350 403 23,000  Level Toronto Center
06:29PM 45.7333 -80.0833 151° Southeast 350 403 23,000  Level Toronto Center
06:30PM 45.6500 -80.0167 151° Southeast 350 403 23,000  Level Toronto Center
06:30PM 45.6500 -80.0167 151° Southeast 350 403 23,000  Level Toronto Center
06:31PM 45.5667 -79.9500 151° Southeast 350 403 23,000  Level Toronto Center
06:31PM 45.5667 -79.9500 151° Southeast 350 403 23,000  Level Toronto Center
06:32PM 45.4833 -79.8667 145° Southeast 350 403 23,000  Level Toronto Center
06:32PM 45.4833 -79.8667 145° Southeast 350 403 23,000  Level Toronto Center
06:33PM 45.4000 -79.7667 140° Southeast 350 403 23,000  Level Toronto Center
06:33PM 45.4000 -79.7667 140° Southeast 350 403 23,000  Level Toronto Center
06:34PM 45.3167 -79.7000 151° Southeast 360 414 23,000  Level Toronto Center
06:34PM 45.3167 -79.7000 151° Southeast 360 414 23,000  Level Toronto Center
06:35PM 45.2333 -79.6333 151° Southeast 360 414 23,000  Level Toronto Center
06:35PM 45.2333 -79.6333 151° Southeast 360 414 23,000  Level Toronto Center
06:36PM 45.1500 -79.5667 151° Southeast 360 414 23,000  Level Toronto Center
06:36PM 45.1500 -79.5667 151° Southeast 360 414 23,000  Level Toronto Center
06:37PM 45.0667 -79.4833 145° Southeast 360 414 23,000  Level Toronto Center
06:37PM 45.0667 -79.4833 145° Southeast 360 414 23,000 -300 Level Toronto Center
06:38PM 44.9833 -79.4167 150° Southeast 360 414 22,700 -300 Descending Toronto Center
06:38PM 44.9833 -79.4167 150° Southeast 360 414 22,700 -540 Level Toronto Center
06:39PM 44.9000 -79.3500 150° Southeast 360 414 22,200 -540 Descending Toronto Center
06:39PM 44.9000 -79.3500 150° Southeast 360 414 22,200 -1,920 Level Toronto Center
06:40PM 44.8000 -79.2500 145° Southeast 370 426 20,300 -1,920 Descending Toronto Center
06:40PM 44.8000 -79.2500 145° Southeast 370 426 20,300 -2,100 Level Toronto Center
06:41PM 44.7167 -79.1833 150° Southeast 380 437 18,200 -2,100 Descending Toronto Center
06:41PM 44.7167 -79.1833 150° Southeast 380 437 18,200 -2,040 Level Toronto Center
06:42PM 44.6333 -79.1167 150° Southeast 390 449 16,200 -2,040 Descending Toronto Center
06:42PM 44.6333 -79.1167 150° Southeast 390 449 16,200 -2,220 Level Toronto Center
06:43PM 44.5333 -79.0167 145° Southeast 370 426 14,000 -2,220 Descending Toronto Center
06:43PM 44.5333 -79.0167 145° Southeast 370 426 14,000 -1,920 Level Toronto Center
06:44PM 44.4500 -78.9500 150° Southeast 360 414 12,100 -1,920 Descending Toronto Center
06:44PM 44.4500 -78.9500 150° Southeast 360 414 12,100 -2,040 Level Toronto Center
06:45PM 44.3667 -78.8833 150° Southeast 340 391 10,100 -2,040 Descending Toronto Center
06:45PM 44.3667 -78.8833 150° Southeast 340 391 10,100 -1,740 Level Toronto Center
06:46PM 44.3000 -78.8667 170° South 320 368 8,400 -1,740 Descending Toronto Center
06:46PM 44.3000 -78.8667 170° South 320 368 8,400 -1,500 Level Toronto Center
06:47PM 44.2167 -78.8500 172° South 290 334 6,900 -1,500 Descending Toronto Center
06:47PM 44.2167 -78.8500 172° South 290 334 6,900 -1,140 Level Toronto Center
06:48PM 44.1333 -78.8500 180° South 280 322 5,800 -1,140 Descending Toronto Center
06:48PM 44.1333 -78.8500 180° South 280 322 5,800 -720 Level Toronto Center
06:49PM 44.0667 -78.8500 180° South 270 311 5,100 -720 Descending Toronto Center
06:49PM 44.0667 -78.8500 180° South 270 311 5,100 -120 Level Toronto Center
06:50PM 44.0000 -78.8167 160° South 260 299 5,000 -120 Descending Toronto Center
06:50PM 44.0000 -78.8167 160° South 260 299 5,000  Level Toronto Center
06:51PM 43.9167 -78.8167 180° South 260 299 5,000  Level Toronto Center
06:51PM 43.9167 -78.8167 180° South 260 299 5,000 -120 Level Toronto Center
06:52PM 43.8500 -78.8167 180° South 270 311 4,900 -120 Descending Toronto Center
06:52PM 43.8500 -78.8167 180° South 270 311 4,900 -900 Level Toronto Center
06:53PM 43.7833 -78.9000 222° Southwest 250 288 4,000 -900 Descending Toronto Center
06:53PM 43.7833 -78.9000 222° Southwest 250 288 4,000 -600 Level Toronto Center
06:54PM 43.7500 -78.9333 216° Southwest 240 276 3,400 -600 Descending Toronto Center
06:54PM 43.7500 -78.9333 216° Southwest 240 276 3,400 -540 Level Toronto Center
06:55PM 43.7000 -79.0167 230° Southwest 230 265 2,900 -540 Descending Toronto Center
06:55PM 43.7000 -79.0167 230° Southwest 230 265 2,900 -540 Level Toronto Center
06:56PM 43.6667 -79.1000 241° Southwest 230 265 2,400 -540 Descending Toronto Center
06:56PM 43.6667 -79.1000 241° Southwest 230 265 2,400 -540 Level Toronto Center
06:57PM 43.6500 -79.1667 251° West 210 242 1,900 -540 Descending Toronto Center
06:57PM 43.6500 -79.1667 251° West 210 242 1,900 -420 Level Toronto Center
06:58PM 43.6333 -79.2333 251° West 170 196 1,500 -420 Descending Toronto Center
06:58PM 43.6333 -79.2333 251° West 170 196 1,500 60 Level Toronto Center
06:59PM 43.6333 -79.2833 270° West 160 184 1,600 60 Climbing Toronto Center
06:59PM 43.6333 -79.2833 270° West 160 184 1,600  Level Toronto Center
06:59PM 43.6333 -79.2833 270° West 160 184 1,600  Level Toronto Center
06:59PM 43.6333 -79.2833 270° West 160 184 1,600  Level Toronto Center
06:59PM 43.6333 -79.2833 270° West 160 184 1,600 -600 Level Toronto Center
07:01PM 43.6167 -79.3833 257° West 110 127 400 -600 Descending Toronto Center